createdAt,value
2019-05-15T00:02:03.632Z,4.20
2019-05-15T00:04:31.053Z,4.20
2019-05-15T00:06:58.785Z,4.20
2019-05-15T00:09:28.485Z,4.30
2019-05-15T00:11:55.631Z,4.30
2019-05-15T00:14:23.005Z,4.20
2019-05-15T00:16:50.638Z,4.20
2019-05-15T00:19:18.740Z,4.20
2019-05-15T00:21:48.822Z,4.20
2019-05-15T00:24:17.796Z,4.20
2019-05-15T00:26:44.990Z,4.20
2019-05-15T00:29:16.074Z,4.10
2019-05-15T00:31:42.174Z,4.10
2019-05-15T00:34:12.847Z,4.10
2019-05-15T00:36:39.185Z,4.10
2019-05-15T00:39:08.453Z,4.10
2019-05-15T00:41:48.344Z,3.90
2019-05-15T00:44:05.821Z,3.90
2019-05-15T00:46:33.263Z,3.80
2019-05-15T00:49:01.414Z,3.70
2019-05-15T00:51:28.776Z,3.50
2019-05-15T00:53:58.776Z,3.50
2019-05-15T00:56:28.314Z,3.60
2019-05-15T00:58:55.820Z,3.60
2019-05-15T01:01:23.227Z,3.50
2019-05-15T01:03:50.697Z,3.60
2019-05-15T01:06:19.099Z,3.50
2019-05-15T01:08:48.317Z,3.50
2019-05-15T01:11:15.722Z,3.40
2019-05-15T01:13:43.419Z,3.40
2019-05-15T01:16:11.238Z,3.30
2019-05-15T01:18:38.790Z,3.40
2019-05-15T01:21:08.377Z,3.30
2019-05-15T01:23:35.774Z,3.40
2019-05-15T01:26:03.303Z,3.30
2019-05-15T01:28:30.891Z,3.30
2019-05-15T01:30:59.213Z,3.30
2019-05-15T01:33:28.333Z,3.30
2019-05-15T01:35:55.830Z,3.30
2019-05-15T01:38:23.258Z,3.40
2019-05-15T01:40:51.390Z,3.40
2019-05-15T01:43:19.193Z,3.30
2019-05-15T01:45:48.347Z,3.20
2019-05-15T01:48:15.982Z,3.00
2019-05-15T01:50:43.696Z,2.90
2019-05-15T01:53:11.388Z,3.00
2019-05-15T01:55:39.399Z,3.00
2019-05-15T01:58:09.043Z,3.00
2019-05-15T02:00:38.878Z,3.00
2019-05-15T02:03:06.208Z,3.00
2019-05-15T02:05:34.008Z,2.90
2019-05-15T02:08:01.417Z,2.90
2019-05-15T02:10:29.286Z,2.90
2019-05-15T02:12:58.737Z,2.90
2019-05-15T02:15:28.376Z,2.90
2019-05-15T02:17:56.158Z,3.00
2019-05-15T02:20:23.923Z,3.00
2019-05-15T02:22:51.388Z,3.00
2019-05-15T02:25:18.722Z,3.00
2019-05-15T02:27:47.939Z,2.90
2019-05-15T02:30:25.748Z,2.80
2019-05-15T02:32:44.966Z,2.70
2019-05-15T02:35:12.651Z,2.80
2019-05-15T02:37:41.477Z,2.80
2019-05-15T02:40:09.928Z,2.70
2019-05-15T02:42:40.020Z,2.90
2019-05-15T02:45:09.945Z,2.80
2019-05-15T02:47:39.373Z,2.70
2019-05-15T02:50:10.638Z,2.80
2019-05-15T02:52:39.103Z,2.70
2019-05-15T02:55:09.361Z,2.80
2019-05-15T02:57:39.175Z,2.70
2019-05-15T03:00:06.051Z,2.70
2019-05-15T03:02:33.531Z,2.70
2019-05-15T03:05:01.587Z,2.50
2019-05-15T03:07:29.756Z,2.50
2019-05-15T03:09:59.957Z,2.50
2019-05-15T03:12:29.061Z,2.50
2019-05-15T03:14:59.849Z,2.60
2019-05-15T03:17:29.425Z,2.50
2019-05-15T03:19:59.047Z,2.50
2019-05-15T03:22:29.355Z,2.50
2019-05-15T03:24:59.081Z,2.60
2019-05-15T03:27:25.398Z,2.60
2019-05-15T03:29:53.316Z,2.50
2019-05-15T03:32:32.210Z,2.40
2019-05-15T03:34:56.121Z,2.50
2019-05-15T03:37:22.025Z,2.50
2019-05-15T03:39:51.772Z,2.40
2019-05-15T03:42:19.285Z,2.50
2019-05-15T03:44:49.987Z,2.50
2019-05-15T03:47:19.192Z,2.60
2019-05-15T03:49:49.144Z,2.60
2019-05-15T03:52:15.265Z,2.70
2019-05-15T03:54:42.592Z,2.60
2019-05-15T03:57:10.047Z,2.60
2019-05-15T03:59:39.936Z,2.60
2019-05-15T04:02:08.597Z,2.50
2019-05-15T04:04:38.803Z,2.50
2019-05-15T04:07:08.994Z,2.50
2019-05-15T04:09:38.493Z,2.50
2019-05-15T04:12:04.793Z,2.40
2019-05-15T04:14:32.327Z,2.50
2019-05-15T04:16:59.993Z,2.60
2019-05-15T04:19:29.600Z,2.60
2019-05-15T04:21:59.900Z,2.80
2019-05-15T04:24:30.091Z,2.90
2019-05-15T04:26:59.870Z,2.70
2019-05-15T04:29:28.986Z,2.70
2019-05-15T04:32:04.925Z,2.80
2019-05-15T04:34:28.804Z,2.90
2019-05-15T04:36:55.257Z,3.00
2019-05-15T04:39:23.130Z,3.10
2019-05-15T04:41:50.960Z,3.20
2019-05-15T04:44:19.425Z,3.30
2019-05-15T04:46:49.694Z,3.30
2019-05-15T04:49:19.081Z,3.60
2019-05-15T04:51:45.849Z,3.70
2019-05-15T04:54:13.201Z,3.80
2019-05-15T04:56:40.495Z,4.00
2019-05-15T04:59:10.196Z,4.00
2019-05-15T05:01:40.263Z,4.20
2019-05-15T05:04:09.385Z,4.30
2019-05-15T05:06:38.702Z,4.50
2019-05-15T05:09:09.203Z,4.70
2019-05-15T05:11:38.333Z,5.00
2019-05-15T05:14:08.255Z,5.30
2019-05-15T05:16:35.262Z,5.40
2019-05-15T05:19:02.940Z,5.30
2019-05-15T05:21:30.625Z,5.60
2019-05-15T05:23:58.577Z,5.80
2019-05-15T05:26:26.103Z,6.10
2019-05-15T05:28:53.509Z,6.20
2019-05-15T05:31:20.932Z,6.30
2019-05-15T05:33:48.805Z,6.60
2019-05-15T05:36:18.565Z,6.90
2019-05-15T05:38:46.208Z,7.20
2019-05-15T05:41:14.020Z,7.30
2019-05-15T05:43:41.917Z,7.50
2019-05-15T05:46:09.490Z,7.80
2019-05-15T05:48:38.308Z,7.50
2019-05-15T05:51:08.984Z,7.60
2019-05-15T05:53:35.575Z,7.80
2019-05-15T05:56:03.367Z,8.50
2019-05-15T05:58:30.680Z,9.60
2019-05-15T06:00:58.572Z,10.30
2019-05-15T06:03:28.114Z,10.30
2019-05-15T06:05:58.831Z,9.60
2019-05-15T06:08:25.081Z,9.40
2019-05-15T06:10:52.485Z,9.20
2019-05-15T06:13:19.957Z,8.90
2019-05-15T06:15:48.901Z,8.70
2019-05-15T06:18:19.116Z,8.50
2019-05-15T06:20:45.882Z,7.90
2019-05-15T06:23:13.248Z,7.70
2019-05-15T06:25:40.697Z,7.50
2019-05-15T06:28:09.090Z,7.70
2019-05-15T06:30:38.638Z,8.00
2019-05-15T06:33:12.839Z,7.20
2019-05-15T06:35:35.477Z,7.20
2019-05-15T06:38:02.887Z,7.50
2019-05-15T06:40:30.280Z,7.70
2019-05-15T06:42:59.329Z,8.00
2019-05-15T06:45:28.500Z,8.20
2019-05-15T06:47:58.230Z,8.50
2019-05-15T06:50:33.056Z,8.70
2019-05-15T06:53:00.768Z,9.00
2019-05-15T06:55:28.923Z,9.00
2019-05-15T06:57:58.421Z,9.20
2019-05-15T07:00:28.223Z,9.30
2019-05-15T07:02:54.948Z,9.60
2019-05-15T07:05:22.510Z,9.50
2019-05-15T07:07:50.273Z,9.40
2019-05-15T07:10:19.005Z,9.30
2019-05-15T07:12:51.259Z,9.40
2019-05-15T07:15:18.294Z,9.30
2019-05-15T07:17:45.716Z,9.00
2019-05-15T07:20:14.542Z,9.40
2019-05-15T07:22:42.060Z,9.40
2019-05-15T07:25:10.661Z,9.80
2019-05-15T07:27:38.997Z,9.80
2019-05-15T07:30:07.822Z,10.50
2019-05-15T07:32:35.307Z,10.50
2019-05-15T07:35:02.860Z,10.90
2019-05-15T07:37:30.222Z,11.30
2019-05-15T07:39:59.113Z,11.10
2019-05-15T07:42:29.058Z,10.70
2019-05-15T07:44:58.628Z,11.10
2019-05-15T07:47:25.576Z,10.90
2019-05-15T07:49:53.186Z,11.20
2019-05-15T07:52:20.519Z,11.50
2019-05-15T07:54:48.864Z,11.80
2019-05-15T07:57:19.249Z,11.80
2019-05-15T07:59:48.020Z,11.70
2019-05-15T08:02:15.524Z,12.20
2019-05-15T08:04:42.852Z,12.10
2019-05-15T08:07:10.187Z,12.60
2019-05-15T08:09:39.136Z,12.70
2019-05-15T08:12:08.251Z,13.10
2019-05-15T08:14:38.661Z,12.80
2019-05-15T08:17:05.132Z,13.10
2019-05-15T08:19:32.660Z,13.50
2019-05-15T08:22:00.515Z,13.60
2019-05-15T08:24:29.727Z,13.40
2019-05-15T08:26:58.148Z,13.10
2019-05-15T08:29:28.629Z,13.00
2019-05-15T08:31:56.239Z,12.60
2019-05-15T08:34:23.705Z,13.00
2019-05-15T08:36:51.032Z,13.50
2019-05-15T08:39:19.036Z,14.00
2019-05-15T08:41:48.474Z,14.00
2019-05-15T08:44:18.423Z,14.20
2019-05-15T08:46:47.834Z,14.80
2019-05-15T08:49:14.669Z,15.70
2019-05-15T08:51:41.976Z,15.50
2019-05-15T08:54:09.477Z,14.90
2019-05-15T08:56:39.143Z,15.30
2019-05-15T08:59:06.172Z,15.90
2019-05-15T09:01:33.503Z,15.40
2019-05-15T09:04:00.896Z,15.40
2019-05-15T09:06:29.100Z,15.60
2019-05-15T09:08:58.585Z,15.50
2019-05-15T09:11:28.313Z,15.70
2019-05-15T09:13:59.301Z,15.50
2019-05-15T09:16:27.929Z,16.20
2019-05-15T09:18:54.842Z,16.10
2019-05-15T09:21:22.283Z,15.20
2019-05-15T09:23:50.176Z,16.60
2019-05-15T09:26:19.418Z,16.70
2019-05-15T09:28:49.447Z,17.20
2019-05-15T09:31:19.058Z,17.50
2019-05-15T09:33:46.004Z,17.60
2019-05-15T09:36:13.727Z,17.80
2019-05-15T09:38:41.151Z,17.40
2019-05-15T09:41:09.190Z,17.00
2019-05-15T09:43:38.500Z,16.80
2019-05-15T09:46:08.164Z,17.20
2019-05-15T09:48:35.372Z,17.10
2019-05-15T09:51:02.726Z,16.40
2019-05-15T09:53:30.185Z,15.80
2019-05-15T09:55:59.939Z,16.20
2019-05-15T09:58:27.124Z,16.10
2019-05-15T10:00:54.640Z,15.60
2019-05-15T10:03:22.084Z,16.10
2019-05-15T10:05:49.579Z,16.20
2019-05-15T10:08:17.120Z,16.60
2019-05-15T10:10:44.555Z,17.60
2019-05-15T10:13:12.042Z,18.40
2019-05-15T10:15:39.402Z,17.40
2019-05-15T10:18:09.774Z,17.50
2019-05-15T10:20:36.327Z,17.70
2019-05-15T10:23:03.682Z,18.70
2019-05-15T10:25:31.908Z,18.30
2019-05-15T10:27:59.660Z,18.80
2019-05-15T10:30:28.412Z,19.10
2019-05-15T10:32:55.920Z,18.70
2019-05-15T10:35:28.199Z,18.50
2019-05-15T10:37:52.467Z,18.00
2019-05-15T10:40:20.609Z,17.80
2019-05-15T10:42:49.548Z,17.90
2019-05-15T10:45:19.266Z,16.80
2019-05-15T10:47:49.377Z,17.30
2019-05-15T10:50:18.868Z,19.80
2019-05-15T10:52:45.546Z,19.30
2019-05-15T10:55:13.393Z,19.10
2019-05-15T10:57:44.130Z,18.10
2019-05-15T11:00:10.232Z,18.70
2019-05-15T11:02:39.445Z,19.00
2019-05-15T11:05:09.341Z,18.90
2019-05-15T11:07:39.410Z,21.30
2019-05-15T11:10:08.646Z,21.90
2019-05-15T11:12:36.526Z,20.80
2019-05-15T11:15:04.413Z,20.60
2019-05-15T11:17:31.873Z,20.90
2019-05-15T11:19:59.364Z,21.20
2019-05-15T11:22:29.648Z,19.40
2019-05-15T11:24:59.299Z,19.70
2019-05-15T11:27:27.993Z,20.30
2019-05-15T11:29:55.701Z,19.80
2019-05-15T11:32:23.041Z,18.30
2019-05-15T11:34:50.497Z,16.80
2019-05-15T11:37:18.943Z,17.70
2019-05-15T11:39:47.547Z,17.00
2019-05-15T11:42:15.134Z,16.50
2019-05-15T11:44:42.557Z,17.40
2019-05-15T11:47:10.978Z,18.30
2019-05-15T11:49:38.694Z,19.50
2019-05-15T11:52:08.341Z,19.40
2019-05-15T11:54:35.299Z,19.80
2019-05-15T11:57:03.057Z,19.80
2019-05-15T11:59:30.484Z,19.80
2019-05-15T12:01:58.123Z,20.70
2019-05-15T12:04:31.137Z,19.00
2019-05-15T12:06:59.807Z,18.50
2019-05-15T12:09:24.921Z,18.40
2019-05-15T12:11:52.420Z,20.20
2019-05-15T12:14:19.890Z,21.50
2019-05-15T12:17:02.422Z,22.60
2019-05-15T12:19:17.539Z,21.60
2019-05-15T12:21:45.428Z,22.80
2019-05-15T12:24:13.503Z,22.20
2019-05-15T12:26:40.990Z,22.30
2019-05-15T12:29:09.822Z,22.40
2019-05-15T12:31:38.888Z,22.20
2019-05-15T12:34:09.074Z,20.60
2019-05-15T12:36:50.687Z,20.40
2019-05-15T13:01:31.832Z,17.00
2019-05-15T13:04:00.082Z,16.10
2019-05-15T13:06:28.689Z,16.50
2019-05-15T13:08:59.247Z,17.30
2019-05-15T13:11:25.866Z,17.60
2019-05-15T13:13:53.350Z,17.20
2019-05-15T13:16:20.721Z,17.60
2019-05-15T13:18:48.456Z,18.10
2019-05-15T13:21:20.582Z,17.90
2019-05-15T13:23:45.714Z,16.60
2019-05-15T13:26:23.368Z,16.50
2019-05-15T13:28:43.037Z,16.70
2019-05-15T13:31:10.475Z,17.00
2019-05-15T13:33:38.601Z,17.10
2019-05-15T13:36:08.704Z,17.20
2019-05-15T13:38:35.504Z,17.90
2019-05-15T13:41:03.351Z,17.80
2019-05-15T13:43:30.810Z,18.40
2019-05-15T13:45:58.509Z,18.20
2019-05-15T13:48:28.974Z,17.60
2019-05-15T13:50:55.644Z,18.70
2019-05-15T13:53:23.398Z,17.70
2019-05-15T13:55:51.114Z,17.40
2019-05-15T13:58:18.495Z,16.90
2019-05-15T14:00:45.996Z,15.90
2019-05-15T14:03:13.889Z,16.40
2019-05-15T14:05:41.347Z,16.30
2019-05-15T14:08:10.486Z,16.10
2019-05-15T14:10:38.665Z,16.30
2019-05-15T14:13:06.524Z,16.50
2019-05-15T14:15:34.095Z,16.20
2019-05-15T14:18:01.532Z,15.80
2019-05-15T14:20:29.095Z,15.50
2019-05-15T14:22:58.512Z,14.70
2019-05-15T14:25:26.143Z,14.60
2019-05-15T14:27:53.645Z,14.30
2019-05-15T14:30:21.669Z,13.90
2019-05-15T14:32:49.096Z,13.50
2019-05-15T14:35:17.997Z,13.60
2019-05-15T14:37:58.873Z,13.50
2019-05-15T14:40:15.162Z,13.20
2019-05-15T14:42:42.813Z,13.10
2019-05-15T14:45:10.683Z,13.10
2019-05-15T14:47:38.887Z,13.00
2019-05-15T14:50:10.151Z,13.10
2019-05-15T14:52:38.474Z,12.80
2019-05-15T14:55:05.937Z,12.90
2019-05-15T14:57:33.316Z,13.00
2019-05-15T15:00:01.146Z,13.00
2019-05-15T15:02:28.643Z,13.20
2019-05-15T15:04:56.020Z,13.20
2019-05-15T15:07:24.187Z,13.20
2019-05-15T15:09:51.710Z,12.90
2019-05-15T15:12:19.369Z,13.00
2019-05-15T15:14:48.570Z,13.10
2019-05-15T15:17:16.145Z,12.70
2019-05-15T15:19:43.562Z,12.70
2019-05-15T15:22:11.109Z,12.80
2019-05-15T15:24:39.106Z,12.90
2019-05-15T15:27:08.303Z,12.70
2019-05-15T15:29:35.920Z,12.70
2019-05-15T15:32:03.844Z,12.20
2019-05-15T15:34:31.745Z,12.10
2019-05-15T15:36:59.598Z,12.30
2019-05-15T15:39:28.127Z,12.20
2019-05-15T15:41:57.759Z,12.30
2019-05-15T15:44:25.061Z,12.20
2019-05-15T15:46:52.516Z,12.10
2019-05-15T15:49:19.983Z,12.10
2019-05-15T15:51:48.741Z,12.00
2019-05-15T15:54:18.668Z,12.10
2019-05-15T15:56:48.350Z,11.60
2019-05-15T15:59:15.301Z,11.80
2019-05-15T16:01:43.055Z,11.80
2019-05-15T16:04:10.889Z,12.00
2019-05-15T16:06:38.925Z,11.60
2019-05-15T16:09:08.430Z,11.50
2019-05-15T16:11:38.389Z,11.80
2019-05-15T16:14:05.348Z,11.40
2019-05-15T16:16:33.140Z,11.60
2019-05-15T16:19:01.205Z,11.50
2019-05-15T16:21:28.836Z,11.40
2019-05-15T16:23:58.274Z,11.30
2019-05-15T16:26:25.722Z,11.10
2019-05-15T16:28:53.555Z,11.30
2019-05-15T16:31:20.913Z,11.40
2019-05-15T16:33:48.664Z,11.10
2019-05-15T16:36:18.271Z,9.80
2019-05-15T16:38:48.228Z,11.10
2019-05-15T16:41:18.221Z,11.10
2019-05-15T16:43:45.106Z,11.00
2019-05-15T16:46:12.916Z,10.80
2019-05-15T16:48:42.183Z,10.80
2019-05-15T16:51:10.558Z,10.80
2019-05-15T16:53:38.337Z,10.60
2019-05-15T16:56:05.921Z,10.70
2019-05-15T16:58:33.339Z,10.40
2019-05-15T17:01:00.715Z,10.60
2019-05-15T17:03:28.915Z,10.50
2019-05-15T17:05:58.554Z,10.50
2019-05-15T17:08:28.394Z,10.50
2019-05-15T17:10:55.331Z,10.40
2019-05-15T17:13:22.777Z,10.50
2019-05-15T17:15:50.532Z,10.50
2019-05-15T17:18:18.240Z,10.60
2019-05-15T17:20:45.684Z,10.60
2019-05-15T17:23:13.317Z,10.60
2019-05-15T17:25:40.843Z,10.50
2019-05-15T17:28:09.248Z,10.40
2019-05-15T17:30:38.232Z,10.30
2019-05-15T17:33:05.872Z,10.30
2019-05-15T17:35:33.496Z,10.40
2019-05-15T17:38:01.543Z,10.30
2019-05-15T17:40:28.955Z,10.20
2019-05-15T17:42:58.569Z,10.20
2019-05-15T17:45:28.154Z,10.20
2019-05-15T17:47:58.512Z,10.20
2019-05-15T17:50:28.186Z,10.20
2019-05-15T17:52:55.088Z,10.10
2019-05-15T17:55:22.493Z,10.00
2019-05-15T17:57:56.683Z,10.10
2019-05-15T18:00:19.404Z,10.10
2019-05-15T18:02:48.640Z,10.00
2019-05-15T18:05:18.618Z,9.90
2019-05-15T18:07:45.405Z,11.10
2019-05-15T18:10:13.794Z,9.90
2019-05-15T18:12:41.328Z,10.00
2019-05-15T18:15:09.444Z,9.70
2019-05-15T18:17:39.218Z,9.70
2019-05-15T18:20:18.581Z,9.80
2019-05-15T18:23:00.852Z,9.90
2019-05-15T18:25:28.643Z,9.80
2019-05-15T18:27:58.852Z,9.70
2019-05-15T18:30:27.959Z,9.70
2019-05-15T18:32:55.014Z,9.70
2019-05-15T18:35:22.753Z,9.60
2019-05-15T18:37:50.185Z,9.50
2019-05-15T18:40:18.909Z,9.60
2019-05-15T18:42:49.369Z,9.60
2019-05-15T18:45:18.245Z,9.70
2019-05-15T18:47:48.070Z,9.60
2019-05-15T18:50:16.181Z,9.60
2019-05-15T18:52:44.382Z,9.50
2019-05-15T18:55:12.368Z,9.50
2019-05-15T18:57:39.825Z,9.40
2019-05-15T19:00:08.768Z,9.40
2019-05-15T19:02:39.312Z,11.00
2019-05-15T19:05:08.140Z,9.40
2019-05-15T19:07:38.022Z,9.40
2019-05-15T19:10:07.512Z,9.40
2019-05-15T19:12:35.149Z,9.40
2019-05-15T19:15:03.015Z,9.40
2019-05-15T19:17:30.523Z,9.00
2019-05-15T19:19:58.749Z,9.50
2019-05-15T19:22:26.270Z,9.40
2019-05-15T19:24:53.939Z,9.40
2019-05-15T19:27:21.761Z,9.40
2019-05-15T19:29:49.517Z,9.20
2019-05-15T19:32:17.748Z,9.30
2019-05-15T19:34:45.184Z,9.20
2019-05-15T19:37:12.600Z,9.30
2019-05-15T19:39:40.486Z,9.30
2019-05-15T19:42:08.936Z,9.30
2019-05-15T19:44:37.823Z,9.30
2019-05-15T19:47:07.817Z,9.20
2019-05-15T19:49:34.566Z,9.20
2019-05-15T19:52:02.336Z,9.20
2019-05-15T19:54:30.442Z,7.40
2019-05-15T19:56:58.602Z,9.30
2019-05-15T19:59:29.063Z,9.30
2019-05-15T20:01:57.740Z,9.30
2019-05-15T20:04:27.774Z,9.30
2019-05-15T20:06:55.301Z,9.20
2019-05-15T20:09:23.275Z,9.20
2019-05-15T20:11:51.062Z,9.30
2019-05-15T20:14:18.781Z,9.30
2019-05-15T20:16:48.096Z,9.30
2019-05-15T20:19:17.757Z,9.30
2019-05-15T20:21:45.396Z,9.20
2019-05-15T20:24:13.241Z,9.20
2019-05-15T20:26:40.668Z,9.00
2019-05-15T20:29:09.141Z,9.10
2019-05-15T20:31:38.511Z,9.20
2019-05-15T20:34:06.902Z,9.30
2019-05-15T20:36:35.104Z,7.90
2019-05-15T20:39:04.960Z,9.20
2019-05-15T20:41:32.308Z,9.20
2019-05-15T20:43:59.685Z,9.20
2019-05-15T20:46:28.969Z,9.20
2019-05-15T20:48:58.074Z,9.20
2019-05-15T20:51:25.725Z,9.20
2019-05-15T20:53:53.213Z,9.20
2019-05-15T20:56:20.874Z,9.20
2019-05-15T20:58:48.233Z,9.20
2019-05-15T21:01:18.332Z,9.10
2019-05-15T21:03:45.615Z,9.10
2019-05-15T21:06:14.082Z,9.10
2019-05-15T21:08:41.567Z,9.20
2019-05-15T21:11:12.020Z,9.10
2019-05-15T21:13:38.448Z,9.10
2019-05-15T21:16:08.313Z,9.10
2019-05-15T21:18:37.859Z,9.20
2019-05-15T21:21:05.227Z,9.10
2019-05-15T21:23:33.203Z,9.10
2019-05-15T21:26:00.648Z,9.10
2019-05-15T21:28:30.069Z,9.00
2019-05-15T21:30:58.097Z,9.00
2019-05-15T21:33:26.236Z,8.90
2019-05-15T21:35:53.912Z,9.00
2019-05-15T21:38:21.489Z,8.90
2019-05-15T21:40:49.327Z,8.90
2019-05-15T21:43:17.872Z,8.90
2019-05-15T21:45:45.818Z,8.90
2019-05-15T21:48:13.612Z,8.80
2019-05-15T21:50:41.795Z,8.80
2019-05-15T21:53:09.790Z,8.80
2019-05-15T21:55:38.822Z,8.70
2019-05-15T21:58:08.670Z,8.80
2019-05-15T22:00:40.879Z,8.80
2019-05-15T22:03:08.402Z,8.70
2019-05-15T22:05:36.510Z,8.70
2019-05-15T22:08:07.700Z,8.50
2019-05-15T22:10:34.755Z,8.50
2019-05-15T22:13:03.974Z,8.50
2019-05-15T22:15:31.467Z,8.40
2019-05-15T22:17:59.184Z,8.40
2019-05-15T22:20:30.149Z,8.40
2019-05-15T22:22:59.265Z,8.50
2019-05-15T22:25:27.831Z,8.40
2019-05-15T22:27:55.168Z,8.40
2019-05-15T22:30:23.352Z,8.40
2019-05-15T22:32:50.755Z,8.40
2019-05-15T22:35:18.950Z,8.30
2019-05-15T22:37:49.211Z,8.40
2019-05-15T22:40:18.326Z,8.30
2019-05-15T22:42:48.364Z,8.40
2019-05-15T22:45:18.310Z,8.20
2019-05-15T22:47:47.959Z,8.30
2019-05-15T22:50:15.756Z,8.30
2019-05-15T22:52:43.123Z,8.30
2019-05-15T22:55:10.532Z,8.20
2019-05-15T22:57:38.827Z,8.30
2019-05-15T23:00:08.682Z,8.30
2019-05-15T23:02:36.380Z,8.30
2019-05-15T23:05:04.324Z,8.30
2019-05-15T23:07:32.045Z,8.20
2019-05-15T23:09:59.849Z,8.20
2019-05-15T23:12:28.746Z,8.20
2019-05-15T23:14:57.882Z,8.30
2019-05-15T23:17:27.614Z,8.30
2019-05-15T23:19:58.085Z,8.20
2019-05-15T23:22:27.793Z,8.10
2019-05-15T23:24:55.116Z,8.20
2019-05-15T23:27:22.645Z,8.30
2019-05-15T23:29:50.424Z,8.20
2019-05-15T23:32:18.426Z,8.10
2019-05-15T23:34:46.070Z,8.20
2019-05-15T23:37:13.837Z,8.20
2019-05-15T23:39:41.235Z,8.20
2019-05-15T23:42:09.229Z,8.10
2019-05-15T23:44:38.222Z,8.20
2019-05-15T23:47:06.148Z,8.10
2019-05-15T23:49:34.231Z,8.10
2019-05-15T23:52:01.660Z,8.10
2019-05-15T23:54:29.123Z,8.10
2019-05-15T23:56:58.370Z,8.00
2019-05-15T23:59:28.088Z,8.00
